createdAt,value
2023-03-02T00:03:46.946Z,-1.98
2023-03-02T00:08:51.408Z,-1.05
2023-03-02T00:13:55.956Z,-1.84
2023-03-02T00:19:02.185Z,-1.86
2023-03-02T00:24:07.022Z,-2.55
2023-03-02T00:29:11.681Z,-1.64
2023-03-02T00:34:18.243Z,-1.35
2023-03-02T00:39:22.466Z,0.53
2023-03-02T00:44:26.881Z,-0.90
2023-03-02T00:49:32.829Z,-0.74
2023-03-02T00:54:44.117Z,-0.75
2023-03-02T00:59:48.544Z,-1.19
2023-03-02T01:05:10.774Z,-1.09
2023-03-02T01:10:15.555Z,-0.41
2023-03-02T01:15:20.189Z,-0.99
2023-03-02T01:20:25.997Z,-0.69
2023-03-02T01:25:30.508Z,-1.35
2023-03-02T01:30:34.880Z,-1.01
2023-03-02T01:35:40.774Z,-1.36
2023-03-02T01:40:45.198Z,-1.34
2023-03-02T01:45:54.573Z,-0.62
2023-03-02T01:51:10.127Z,-0.41
2023-03-02T01:56:16.795Z,-0.48
2023-03-02T02:01:21.634Z,-0.39
2023-03-02T02:06:30.621Z,-0.88
2023-03-02T02:11:35.417Z,-1.73
2023-03-02T02:16:40.608Z,-1.65
2023-03-02T02:21:46.377Z,-1.46
2023-03-02T02:26:54.430Z,-1.51
2023-03-02T02:32:02.142Z,-1.14
2023-03-02T02:37:08.326Z,-0.88
2023-03-02T02:42:15.802Z,-0.45
2023-03-02T02:47:21.364Z,-1.23
2023-03-02T02:52:26.754Z,-1.62
2023-03-02T02:57:32.852Z,-0.88
2023-03-02T03:02:44.853Z,-1.02
2023-03-02T03:07:49.532Z,-0.13
2023-03-02T03:12:56.940Z,-0.84
2023-03-02T03:18:04.191Z,-1.51
2023-03-02T03:23:10.420Z,-1.42
2023-03-02T03:28:16.444Z,-1.41
2023-03-02T03:33:20.874Z,-1.70
2023-03-02T03:38:25.530Z,-1.11
2023-03-02T03:43:31.886Z,-0.64
2023-03-02T03:48:36.755Z,-0.08
2023-03-02T03:53:41.293Z,-0.83
2023-03-02T03:58:47.258Z,-1.46
2023-03-02T04:03:52.896Z,-2.85
2023-03-02T04:08:57.277Z,-1.96
2023-03-02T04:14:03.196Z,-1.66
2023-03-02T04:19:09.742Z,-1.82
2023-03-02T04:24:18.094Z,-1.82
2023-03-02T04:29:24.012Z,-3.19
2023-03-02T04:34:29.711Z,-3.56
2023-03-02T04:39:34.444Z,-2.46
2023-03-02T04:44:39.995Z,-3.03
2023-03-02T04:49:44.270Z,-1.53
2023-03-02T04:54:49.027Z,-2.13
2023-03-02T04:59:54.815Z,-2.42
2023-03-02T05:04:59.189Z,-2.78
2023-03-02T05:10:03.620Z,-2.32
2023-03-02T05:15:09.858Z,-1.61
2023-03-02T05:20:14.667Z,-2.14
2023-03-02T05:25:18.950Z,-0.99
2023-03-02T05:30:25.404Z,-0.56
2023-03-02T05:35:29.628Z,-1.52
2023-03-02T05:40:34.041Z,-2.42
2023-03-02T05:45:40.074Z,-1.81
2023-03-02T05:50:44.482Z,-1.93
2023-03-02T05:55:48.581Z,-0.65
2023-03-02T06:00:54.374Z,-0.31
2023-03-02T06:05:58.721Z,-0.08
2023-03-02T06:11:02.782Z,0.13
2023-03-02T06:16:08.965Z,0.37
2023-03-02T06:21:13.163Z,0.08
2023-03-02T06:26:17.328Z,0.00
2023-03-02T06:31:23.240Z,-0.30
2023-03-02T06:36:48.395Z,0.44
2023-03-02T06:41:57.391Z,1.46
2023-03-02T06:47:06.681Z,1.30
2023-03-02T06:52:14.285Z,1.42
2023-03-02T06:57:21.070Z,2.01
2023-03-02T07:02:27.812Z,1.95
2023-03-02T07:07:32.485Z,3.71
2023-03-02T07:12:37.059Z,3.53
2023-03-02T07:17:43.883Z,3.20
2023-03-02T07:22:47.902Z,3.61
2023-03-02T07:27:51.907Z,2.61
2023-03-02T07:32:57.720Z,2.87
2023-03-02T07:38:01.728Z,3.29
2023-03-02T07:43:05.680Z,3.96
2023-03-02T07:48:11.143Z,4.66
2023-03-02T07:53:15.183Z,4.15
2023-03-02T07:58:19.268Z,3.31
2023-03-02T08:03:24.663Z,4.41
2023-03-02T08:08:28.658Z,4.62
2023-03-02T08:13:32.649Z,5.16
2023-03-02T08:18:38.383Z,5.81
2023-03-02T08:23:42.521Z,5.78
2023-03-02T08:28:47.207Z,6.17
2023-03-02T08:33:52.731Z,6.04
2023-03-02T08:38:56.855Z,5.96
2023-03-02T08:44:01.062Z,6.11
2023-03-02T08:49:06.701Z,6.68
2023-03-02T08:54:11.562Z,6.73
2023-03-02T08:59:15.576Z,6.44
2023-03-02T09:04:21.547Z,6.67
2023-03-02T09:09:25.785Z,7.41
2023-03-02T09:14:29.939Z,7.35
2023-03-02T09:19:44.305Z,7.00
2023-03-02T09:24:48.689Z,7.66
2023-03-02T09:29:52.864Z,8.17
2023-03-02T09:34:58.578Z,8.29
2023-03-02T09:40:02.605Z,8.13
2023-03-02T09:45:21.430Z,7.18
2023-03-02T09:50:32.663Z,7.18
2023-03-02T09:55:38.165Z,7.24
2023-03-02T10:00:44.083Z,6.53
2023-03-02T10:05:50.707Z,7.48
2023-03-02T10:10:59.246Z,7.65
2023-03-02T10:16:11.485Z,8.13
2023-03-02T10:21:21.817Z,7.29
2023-03-02T10:26:33.889Z,8.13
2023-03-02T10:31:40.298Z,7.15
2023-03-02T10:36:47.745Z,6.60
2023-03-02T10:41:54.482Z,6.30
2023-03-02T10:46:59.360Z,7.44
2023-03-02T10:52:05.921Z,8.42
2023-03-02T10:57:27.317Z,8.47
2023-03-02T11:02:34.552Z,6.93
2023-03-02T11:07:40.440Z,7.23
2023-03-02T11:12:47.411Z,6.32
2023-03-02T11:17:54.372Z,6.94
2023-03-02T11:23:04.326Z,7.49
2023-03-02T11:28:12.438Z,7.46
2023-03-02T11:33:20.713Z,7.50
2023-03-02T11:38:27.725Z,7.64
2023-03-02T11:43:32.938Z,7.21
2023-03-02T11:48:40.014Z,7.48
2023-03-02T11:53:48.632Z,7.52
2023-03-02T11:58:55.489Z,8.07
2023-03-02T12:04:08.024Z,8.90
2023-03-02T12:09:31.425Z,10.87
2023-03-02T12:14:38.860Z,12.87
2023-03-02T12:19:45.309Z,13.12
2023-03-02T12:25:00.432Z,12.65
2023-03-02T12:30:14.391Z,13.24
2023-03-02T12:35:19.777Z,14.16
2023-03-02T12:40:33.277Z,14.83
2023-03-02T12:45:46.323Z,15.90
2023-03-02T12:50:51.018Z,13.88
2023-03-02T12:55:56.654Z,13.18
2023-03-02T13:01:02.299Z,14.14
2023-03-02T13:06:19.600Z,14.33
2023-03-02T13:11:28.046Z,15.02
2023-03-02T13:16:34.259Z,13.15
2023-03-02T13:21:39.958Z,13.37
2023-03-02T13:26:55.691Z,13.04
2023-03-02T13:32:08.891Z,13.28
2023-03-02T13:37:20.653Z,13.68
2023-03-02T13:42:29.536Z,12.73
2023-03-02T13:47:33.872Z,12.16
2023-03-02T13:52:38.000Z,12.24
2023-03-02T13:57:45.413Z,12.53
2023-03-02T14:02:50.645Z,13.15
2023-03-02T14:07:54.936Z,12.72
2023-03-02T14:13:03.471Z,12.45
2023-03-02T14:18:11.597Z,12.52
2023-03-02T14:23:15.573Z,11.84
2023-03-02T14:28:25.867Z,11.97
2023-03-02T14:33:30.129Z,11.91
2023-03-02T14:38:34.323Z,11.32
2023-03-02T14:43:39.748Z,11.77
2023-03-02T14:48:43.888Z,11.97
2023-03-02T14:53:48.609Z,12.43
2023-03-02T14:58:54.334Z,11.38
2023-03-02T15:03:58.299Z,11.69
2023-03-02T15:09:02.334Z,11.29
2023-03-02T15:14:07.761Z,11.30
2023-03-02T15:19:11.768Z,11.29
2023-03-02T15:24:15.724Z,11.10
2023-03-02T15:29:21.339Z,10.42
2023-03-02T15:34:25.345Z,10.07
2023-03-02T15:39:29.584Z,9.76
2023-03-02T15:44:35.046Z,9.58
2023-03-02T15:49:39.390Z,8.99
2023-03-02T15:54:43.610Z,8.63
2023-03-02T15:59:49.036Z,7.65
2023-03-02T16:04:53.037Z,6.30
2023-03-02T16:09:57.068Z,6.15
2023-03-02T16:15:02.651Z,5.50
2023-03-02T16:20:07.133Z,5.05
2023-03-02T16:25:11.436Z,4.83
2023-03-02T16:30:17.576Z,4.87
2023-03-02T16:35:21.789Z,5.07
2023-03-02T16:40:32.711Z,4.35
2023-03-02T16:45:39.176Z,4.07
2023-03-02T16:50:43.566Z,3.97
2023-03-02T16:55:47.864Z,3.74
2023-03-02T17:00:53.755Z,3.95
2023-03-02T17:05:57.948Z,3.93
2023-03-02T17:11:02.219Z,3.99
2023-03-02T17:16:08.273Z,3.65
2023-03-02T17:21:12.477Z,3.54
2023-03-02T17:26:17.817Z,3.18
2023-03-02T17:31:23.395Z,3.03
2023-03-02T17:36:27.573Z,2.74
2023-03-02T17:41:32.914Z,2.67
2023-03-02T17:46:38.466Z,2.47
2023-03-02T17:51:42.493Z,2.07
2023-03-02T17:56:46.556Z,2.25
2023-03-02T18:01:52.108Z,2.01
2023-03-02T18:06:56.316Z,1.91
2023-03-02T18:12:01.228Z,1.92
2023-03-02T18:17:09.751Z,2.10
2023-03-02T18:27:55.435Z,2.39
2023-03-02T18:33:00.084Z,2.14
2023-03-02T18:38:04.599Z,2.10
2023-03-02T18:43:10.857Z,1.82
2023-03-02T18:48:15.408Z,1.86
2023-03-02T18:53:20.016Z,1.72
2023-03-02T18:58:26.553Z,2.62
2023-03-02T19:03:31.692Z,2.61
2023-03-02T19:08:36.537Z,2.61
2023-03-02T19:13:42.667Z,2.28
2023-03-02T19:18:48.769Z,2.70
2023-03-02T19:23:53.248Z,2.84
2023-03-02T19:28:59.292Z,2.53
2023-03-02T19:34:04.242Z,2.89
2023-03-02T19:39:08.765Z,3.01
2023-03-02T19:44:16.664Z,3.27
2023-03-02T19:49:21.154Z,3.31
2023-03-02T19:54:25.960Z,3.30
2023-03-02T19:59:32.610Z,3.60
2023-03-02T20:04:37.305Z,3.21
2023-03-02T20:09:42.801Z,2.82
2023-03-02T20:14:49.456Z,2.88
2023-03-02T20:19:56.032Z,2.93
2023-03-02T20:25:00.573Z,2.81
2023-03-02T20:30:12.079Z,2.66
2023-03-02T20:35:16.648Z,2.49
2023-03-02T20:40:23.793Z,2.66
2023-03-02T20:45:30.670Z,2.73
2023-03-02T20:50:36.307Z,2.87
2023-03-02T20:55:40.903Z,1.92
2023-03-02T21:00:47.031Z,2.17
2023-03-02T21:05:51.228Z,2.06
2023-03-02T21:10:55.989Z,2.18
2023-03-02T21:16:02.282Z,1.69
2023-03-02T21:21:07.812Z,1.46
2023-03-02T21:26:13.242Z,0.85
2023-03-02T21:31:19.735Z,1.06
2023-03-02T21:36:26.203Z,1.13
2023-03-02T21:41:30.760Z,0.97
2023-03-02T21:46:38.452Z,1.01
2023-03-02T21:51:43.317Z,1.35
2023-03-02T21:56:47.759Z,1.34
2023-03-02T22:01:53.628Z,0.86
2023-03-02T22:06:57.809Z,1.13
2023-03-02T22:12:02.388Z,-0.25
2023-03-02T22:17:18.210Z,0.17
2023-03-02T22:22:27.885Z,-0.49
2023-03-02T22:27:34.780Z,-0.46
2023-03-02T22:32:40.672Z,0.05
2023-03-02T22:37:44.823Z,-1.13
2023-03-02T22:42:49.325Z,-1.23
2023-03-02T22:47:55.699Z,-1.41
2023-03-02T22:53:11.078Z,-1.44
2023-03-02T22:58:40.496Z,-0.75
2023-03-02T23:03:47.900Z,-1.62
2023-03-02T23:08:52.886Z,0.20
2023-03-02T23:13:57.410Z,-1.15
2023-03-02T23:19:04.393Z,-0.84
2023-03-02T23:24:09.940Z,-1.49
2023-03-02T23:29:14.481Z,-1.54
2023-03-02T23:34:20.442Z,-1.48
2023-03-02T23:39:24.599Z,-1.38
2023-03-02T23:44:29.182Z,-0.76
2023-03-02T23:49:35.139Z,-0.40
2023-03-02T23:54:39.261Z,-0.53
2023-03-02T23:59:43.869Z,-0.02
